Time;durP1;ratioP1;P1;durP2;ratioP2;P2;SDS_P1;SDS_P2;PMS_P1;PMS_P2;Temp;Humidity;BMP_temperature;BMP_pressure;BME280_temperature;BME280_humidity;BME280_pressure;Samples;Min_cycle;Max_cycle;Signal;HPM_P1;HPM_P2
2022/04/13 00:00:18;;;;;;;6.33;4.53;;;14.40;99.90;;;;;;5073307;28;20539;-59
2022/04/13 00:02:45;;;;;;;5.33;4.80;;;14.30;99.90;;;;;;5073285;28;20444;-59
2022/04/13 00:05:14;;;;;;;4.97;4.50;;;14.40;99.90;;;;;;5073666;28;20539;-59
2022/04/13 00:07:41;;;;;;;5.20;4.23;;;14.40;99.90;;;;;;5073485;28;20507;-59
2022/04/13 00:10:09;;;;;;;5.20;4.07;;;14.30;99.90;;;;;;5073660;28;20450;-59
2022/04/13 00:12:36;;;;;;;5.20;4.70;;;14.30;99.90;;;;;;5073567;28;20448;-59
2022/04/13 00:15:06;;;;;;;5.70;4.10;;;14.30;99.90;;;;;;5073111;28;20444;-59
2022/04/13 00:17:33;;;;;;;5.73;4.47;;;14.30;99.90;;;;;;5073365;28;20475;-59
2022/04/13 00:20:01;;;;;;;4.30;3.90;;;14.30;99.90;;;;;;5073216;28;20950;-59
2022/04/13 00:22:29;;;;;;;6.23;4.43;;;14.20;99.90;;;;;;5073389;28;20452;-59
2022/04/13 00:24:56;;;;;;;4.50;4.20;;;14.20;99.90;;;;;;5073143;28;20444;-59
2022/04/13 00:27:23;;;;;;;5.40;3.60;;;14.20;99.90;;;;;;5073169;28;20461;-59
2022/04/13 00:29:51;;;;;;;3.60;3.30;;;14.20;99.90;;;;;;5072902;28;20483;-60
2022/04/13 00:32:18;;;;;;;5.80;4.07;;;14.10;99.90;;;;;;5073488;28;20527;-59
2022/04/13 00:34:45;;;;;;;4.77;3.80;;;14.10;99.90;;;;;;5077019;28;20444;-59
2022/04/13 00:37:12;;;;;;;6.80;4.00;;;14.10;99.90;;;;;;5077398;28;20575;-59
2022/04/13 00:39:40;;;;;;;6.00;4.17;;;14.00;99.90;;;;;;5077162;28;20448;-59
2022/04/13 00:42:08;;;;;;;4.97;4.40;;;14.00;99.90;;;;;;5076950;28;20448;-59
2022/04/13 00:44:36;;;;;;;6.63;4.07;;;14.00;99.90;;;;;;5077353;28;20451;-60
2022/04/13 00:47:07;;;;;;;7.20;3.47;;;14.00;99.90;;;;;;5076959;28;20440;-60
2022/04/13 00:49:35;;;;;;;5.00;4.50;;;14.00;99.90;;;;;;5077134;28;20432;-60
2022/04/13 00:52:04;;;;;;;6.20;4.20;;;14.00;99.90;;;;;;5077099;28;20448;-60
2022/04/13 00:54:32;;;;;;;4.77;4.23;;;14.00;99.90;;;;;;5076900;28;20497;-60
2022/04/13 00:57:07;;;;;;;5.93;4.80;;;14.00;99.90;;;;;;5076994;28;20488;-59
2022/04/13 00:59:37;;;;;;;5.40;4.70;;;13.90;99.90;;;;;;5077123;28;20538;-60
2022/04/13 01:02:06;;;;;;;5.63;4.10;;;13.90;99.90;;;;;;5076751;28;20547;-60
2022/04/13 01:04:36;;;;;;;4.83;4.37;;;13.90;99.90;;;;;;5076824;28;20536;-60
2022/04/13 01:07:04;;;;;;;5.43;4.50;;;13.80;99.90;;;;;;5076702;28;20863;-60
2022/04/13 01:09:31;;;;;;;6.00;4.23;;;13.80;99.90;;;;;;5076606;28;20452;-60
2022/04/13 01:12:00;;;;;;;5.73;4.30;;;13.70;99.90;;;;;;5076681;28;20452;-59
2022/04/13 01:14:27;;;;;;;7.13;6.43;;;13.70;99.90;;;;;;5076635;28;20449;-59
2022/04/13 01:16:54;;;;;;;6.93;4.80;;;13.60;99.90;;;;;;5076680;28;20484;-59
2022/04/13 01:19:21;;;;;;;5.30;4.30;;;13.60;99.90;;;;;;5076568;28;20472;-59
2022/04/13 01:21:52;;;;;;;7.73;6.03;;;13.60;99.90;;;;;;5076448;28;20451;-59
2022/04/13 01:24:22;;;;;;;5.20;4.80;;;13.50;99.90;;;;;;5076418;28;20490;-59
2022/04/13 01:26:50;;;;;;;14.50;4.40;;;;;;;;;;5076816;28;20543;-59
2022/04/13 01:29:17;;;;;;;6.77;5.57;;;13.50;99.90;;;;;;5074589;28;20484;-59
2022/04/13 01:31:45;;;;;;;5.70;5.00;;;13.40;99.90;;;;;;5075152;28;20449;-59
2022/04/13 01:34:13;;;;;;;5.03;4.53;;;13.40;99.90;;;;;;5075391;28;20444;-59
2022/04/13 01:36:41;;;;;;;6.33;4.60;;;13.30;99.90;;;;;;5074997;28;20484;-59
2022/04/13 01:39:08;;;;;;;7.20;4.63;;;13.30;99.90;;;;;;5074940;28;20468;-59
2022/04/13 01:41:38;;;;;;;8.73;4.30;;;13.40;99.90;;;;;;5075089;28;20452;-59
2022/04/13 01:44:05;;;;;;;7.60;6.40;;;13.30;99.90;;;;;;5074533;28;20543;-60
2022/04/13 01:46:32;;;;;;;5.40;4.60;;;13.30;99.90;;;;;;5074921;28;20444;-60
2022/04/13 01:48:59;;;;;;;5.13;4.63;;;13.20;99.90;;;;;;5074844;28;20464;-60
2022/04/13 01:51:27;;;;;;;5.43;4.50;;;13.20;99.90;;;;;;5074796;28;20969;-60
2022/04/13 01:53:54;;;;;;;5.30;4.77;;;13.20;99.90;;;;;;5074821;28;20448;-60
2022/04/13 01:56:21;;;;;;;6.30;4.93;;;13.20;99.90;;;;;;5074543;28;20966;-60
2022/04/13 01:58:49;;;;;;;6.00;5.07;;;13.20;99.90;;;;;;5074922;28;20504;-60
2022/04/13 02:01:17;;;;;;;5.60;4.37;;;;;;;;;;5074348;28;20450;-60
2022/04/13 02:03:44;;;;;;;5.97;5.30;;;13.10;99.90;;;;;;5074495;28;20510;-60
2022/04/13 02:06:12;;;;;;;8.30;5.20;;;13.00;99.90;;;;;;5074772;28;20813;-60
2022/04/13 02:08:39;;;;;;;5.93;4.17;;;13.00;99.90;;;;;;5074708;28;20472;-60
2022/04/13 02:11:06;;;;;;;6.50;4.47;;;13.00;99.90;;;;;;5074657;28;20543;-60
2022/04/13 02:13:33;;;;;;;6.23;4.20;;;13.00;99.90;;;;;;5074266;28;20444;-60
2022/04/13 02:16:01;;;;;;;5.10;4.50;;;13.00;99.90;;;;;;5074452;28;20491;-60
2022/04/13 02:18:28;;;;;;;5.90;4.77;;;13.00;99.90;;;;;;5074124;28;20464;-60
2022/04/13 02:20:55;;;;;;;6.30;5.07;;;13.00;99.90;;;;;;5074117;28;20942;-60
2022/04/13 02:23:23;;;;;;;4.93;4.53;;;13.00;99.90;;;;;;5074462;28;20444;-60
2022/04/13 02:25:50;;;;;;;4.13;3.80;;;12.90;99.90;;;;;;5074256;28;20452;-60
2022/04/13 02:28:17;;;;;;;4.50;3.70;;;12.80;99.90;;;;;;5074294;28;20479;-60
2022/04/13 02:30:44;;;;;;;6.00;4.30;;;12.80;99.90;;;;;;4957879;28;3341160;-60
2022/04/13 02:33:13;;;;;;;5.50;4.40;;;12.80;99.90;;;;;;5075293;28;20198;-60
2022/04/13 02:35:40;;;;;;;6.00;4.10;;;12.80;99.90;;;;;;5075367;28;20445;-60
2022/04/13 02:38:07;;;;;;;4.70;4.30;;;12.80;99.90;;;;;;5074668;28;20491;-60
2022/04/13 02:40:34;;;;;;;4.30;3.90;;;12.80;99.90;;;;;;5074743;28;20448;-60
2022/04/13 02:43:01;;;;;;;4.30;3.90;;;12.80;99.90;;;;;;5074983;28;20444;-60
2022/04/13 02:45:29;;;;;;;7.03;4.63;;;12.70;99.90;;;;;;5074658;28;21038;-60
2022/04/13 02:47:56;;;;;;;10.03;4.00;;;12.60;99.90;;;;;;5074684;28;20464;-60
2022/04/13 02:50:24;;;;;;;4.13;3.70;;;12.60;99.90;;;;;;5074848;28;20474;-60
2022/04/13 02:52:54;;;;;;;4.83;4.43;;;12.50;99.90;;;;;;5074849;28;20803;-60
2022/04/13 02:55:21;;;;;;;8.60;5.43;;;12.40;99.90;;;;;;5073971;28;20495;-60
2022/04/13 02:57:48;;;;;;;4.93;4.40;;;12.40;99.90;;;;;;5073895;28;20484;-61
2022/04/13 03:00:17;;;;;;;4.53;3.90;;;12.50;99.90;;;;;;5074695;28;20451;-60
2022/04/13 03:02:44;;;;;;;4.00;3.60;;;12.40;99.90;;;;;;5074551;28;20440;-60
2022/04/13 03:05:12;;;;;;;6.87;4.60;;;12.50;99.90;;;;;;5074494;28;20478;-60
2022/04/13 03:07:41;;;;;;;3.77;3.47;;;12.50;99.90;;;;;;5074306;28;20464;-60
2022/04/13 03:10:09;;;;;;;5.03;4.03;;;12.50;99.90;;;;;;5074405;28;20441;-60
2022/04/13 03:12:36;;;;;;;4.00;3.53;;;12.40;99.90;;;;;;5074322;28;20877;-59
2022/04/13 03:15:06;;;;;;;4.10;3.80;;;12.40;99.90;;;;;;5074184;28;20935;-59
2022/04/13 03:17:33;;;;;;;5.33;4.20;;;12.30;99.90;;;;;;5074146;28;20484;-60
2022/04/13 03:20:00;;;;;;;5.20;3.90;;;12.40;99.90;;;;;;5073921;28;20642;-60
2022/04/13 03:22:27;;;;;;;5.10;4.60;;;12.30;99.90;;;;;;5073976;28;20448;-60
2022/04/13 03:24:56;;;;;;;6.57;5.10;;;12.30;99.90;;;;;;5073782;28;20456;-59
2022/04/13 03:27:23;;;;;;;4.43;4.03;;;12.20;99.90;;;;;;5074065;28;20587;-60
2022/04/13 03:29:50;;;;;;;6.53;5.00;;;12.10;99.90;;;;;;5073796;28;20833;-60
2022/04/13 03:32:17;;;;;;;4.03;3.73;;;12.10;99.90;;;;;;5073970;28;20931;-60
2022/04/13 03:34:45;;;;;;;4.57;4.17;;;12.10;99.90;;;;;;5074136;28;20451;-60
2022/04/13 03:37:12;;;;;;;4.87;4.40;;;;;;;;;;5073490;28;20481;-60
2022/04/13 03:39:39;;;;;;;5.30;4.47;;;12.10;99.90;;;;;;5073674;28;20952;-60
2022/04/13 03:42:08;;;;;;;5.63;3.97;;;12.10;99.90;;;;;;5073882;28;20452;-60
2022/04/13 03:44:35;;;;;;;8.53;3.90;;;12.20;99.90;;;;;;5073942;28;20490;-59
2022/04/13 03:47:03;;;;;;;4.63;4.23;;;12.20;99.90;;;;;;5073586;28;20451;-59
2022/04/13 03:49:30;;;;;;;5.67;4.50;;;12.30;99.90;;;;;;5073432;28;20454;-60
2022/04/13 03:51:57;;;;;;;4.80;4.40;;;12.10;99.90;;;;;;5073405;28;20942;-59
2022/04/13 03:54:24;;;;;;;5.60;4.00;;;12.10;99.90;;;;;;5073903;28;20482;-60
2022/04/13 03:56:53;;;;;;;5.53;4.33;;;12.00;99.90;;;;;;5073682;28;20484;-59
2022/04/13 03:59:22;;;;;;;5.63;4.73;;;11.90;99.90;;;;;;5073628;28;20472;-59
2022/04/13 04:01:49;;;;;;;5.30;4.60;;;11.90;99.90;;;;;;5073751;28;20471;-60
2022/04/13 04:04:16;;;;;;;6.03;5.37;;;11.90;99.90;;;;;;5073429;28;20455;-59
2022/04/13 04:06:43;;;;;;;4.23;3.83;;;11.90;99.90;;;;;;5073193;28;20444;-60
2022/04/13 04:09:10;;;;;;;5.03;4.53;;;11.90;99.90;;;;;;5073635;28;20464;-59
2022/04/13 04:11:37;;;;;;;6.77;6.07;;;11.90;99.90;;;;;;5073409;28;20449;-59
2022/04/13 04:14:04;;;;;;;7.07;4.30;;;12.00;99.90;;;;;;5073150;28;20881;-59
2022/04/13 04:16:33;;;;;;;8.03;4.83;;;12.00;99.90;;;;;;5073499;28;20444;-59
2022/04/13 04:19:00;;;;;;;5.60;4.43;;;11.80;99.90;;;;;;5073054;28;20563;-60
2022/04/13 04:21:27;;;;;;;5.40;4.97;;;11.80;99.90;;;;;;5073071;28;20444;-60
2022/04/13 04:23:54;;;;;;;7.10;4.33;;;11.70;99.90;;;;;;5073185;28;20986;-60
2022/04/13 04:26:21;;;;;;;4.67;4.27;;;11.70;99.90;;;;;;5073524;28;20456;-59
2022/04/13 04:28:48;;;;;;;7.40;4.50;;;11.70;99.90;;;;;;5072801;28;20459;-60
2022/04/13 04:31:19;;;;;;;5.50;4.47;;;11.60;99.90;;;;;;5073165;28;20899;-59
2022/04/13 04:33:47;;;;;;;8.87;4.83;;;11.70;99.90;;;;;;5073440;28;20444;-59
2022/04/13 04:36:14;;;;;;;6.10;5.13;;;11.60;99.90;;;;;;5073327;28;20444;-59
2022/04/13 04:38:42;;;;;;;5.47;4.67;;;11.50;99.90;;;;;;5073076;28;20907;-60
2022/04/13 04:41:09;;;;;;;5.30;4.63;;;11.50;99.90;;;;;;5072992;28;20444;-60
2022/04/13 04:43:37;;;;;;;5.00;4.50;;;11.60;99.90;;;;;;5073117;28;20476;-60
2022/04/13 04:46:04;;;;;;;5.37;4.87;;;11.60;99.90;;;;;;5072840;28;20454;-60
2022/04/13 04:48:31;;;;;;;6.10;4.67;;;11.60;99.90;;;;;;5073167;28;20465;-60
2022/04/13 04:51:00;;;;;;;5.73;5.23;;;11.60;99.90;;;;;;5072984;28;20458;-60
2022/04/13 04:53:27;;;;;;;6.27;5.67;;;11.60;99.90;;;;;;5072980;28;20448;-60
2022/04/13 04:55:54;;;;;;;8.93;7.10;;;11.60;99.90;;;;;;5073109;28;20456;-59
2022/04/13 04:58:21;;;;;;;4.97;4.57;;;11.60;99.90;;;;;;5072720;28;20495;-61
2022/04/13 05:00:48;;;;;;;6.20;5.30;;;11.60;99.90;;;;;;5072703;28;20547;-59
2022/04/13 05:03:15;;;;;;;7.17;4.90;;;11.60;99.90;;;;;;5072885;28;20455;-59
2022/04/13 05:05:42;;;;;;;7.10;4.90;;;11.50;99.90;;;;;;5072656;28;20539;-59
2022/04/13 05:08:11;;;;;;;7.03;5.23;;;11.60;99.90;;;;;;5072935;28;20461;-59
2022/04/13 05:10:38;;;;;;;7.90;5.60;;;11.70;99.90;;;;;;5073020;28;20785;-59
2022/04/13 05:13:06;;;;;;;6.73;5.10;;;11.70;99.90;;;;;;5072625;28;20931;-59
2022/04/13 05:15:33;;;;;;;5.40;4.90;;;11.70;99.90;;;;;;5072543;28;20491;-59
2022/04/13 05:18:02;;;;;;;8.03;4.53;;;11.80;99.90;;;;;;5072419;28;20494;-59
2022/04/13 05:20:29;;;;;;;5.30;4.73;;;11.90;99.90;;;;;;5075378;28;20521;-59
2022/04/13 05:22:56;;;;;;;7.73;5.00;;;11.90;99.90;;;;;;5076313;28;20715;-59
2022/04/13 05:25:24;;;;;;;8.20;3.87;;;11.90;99.90;;;;;;5076008;28;20550;-59
2022/04/13 05:27:52;;;;;;;6.17;4.47;;;12.00;99.90;;;;;;5076534;28;20494;-60
2022/04/13 05:30:20;;;;;;;5.10;4.60;;;12.00;99.90;;;;;;5075823;28;20519;-59
2022/04/13 05:32:49;;;;;;;5.40;4.90;;;12.10;99.90;;;;;;5075982;28;20811;-59
2022/04/13 05:35:16;;;;;;;7.40;5.40;;;12.10;99.90;;;;;;5076047;28;21026;-59
2022/04/13 05:37:45;;;;;;;5.67;5.03;;;12.10;99.90;;;;;;5075968;28;20495;-59
2022/04/13 05:40:13;;;;;;;6.87;6.27;;;12.20;99.90;;;;;;5075978;28;20448;-59
2022/04/13 05:42:41;;;;;;;10.80;5.77;;;12.30;99.90;;;;;;5075932;28;20804;-60
2022/04/13 05:45:10;;;;;;;7.10;5.57;;;12.30;99.90;;;;;;5076071;28;20450;-59
2022/04/13 05:47:38;;;;;;;6.30;5.53;;;12.40;99.90;;;;;;5075651;28;20467;-59
2022/04/13 05:50:06;;;;;;;6.00;5.10;;;12.50;99.90;;;;;;5075941;28;20478;-59
2022/04/13 05:52:33;;;;;;;9.73;6.37;;;12.50;99.90;;;;;;5075375;28;20448;-59
2022/04/13 05:55:00;;;;;;;9.07;5.90;;;12.60;99.90;;;;;;5075316;28;20459;-59
2022/04/13 05:57:27;;;;;;;11.23;6.40;;;12.70;99.90;;;;;;5075445;28;20571;-59
2022/04/13 05:59:56;;;;;;;6.43;5.20;;;12.80;99.90;;;;;;5075385;28;20540;-59
2022/04/13 06:02:24;;;;;;;9.00;5.80;;;12.80;99.90;;;;;;5075301;28;20448;-59
2022/04/13 06:04:51;;;;;;;6.23;5.63;;;12.90;99.90;;;;;;5075614;28;20440;-59
2022/04/13 06:07:18;;;;;;;6.57;5.80;;;13.00;99.90;;;;;;5075385;28;20507;-59
2022/04/13 06:09:45;;;;;;;10.50;5.50;;;13.00;99.90;;;;;;5075294;28;20502;-60
2022/04/13 06:12:13;;;;;;;9.17;7.30;;;13.00;99.90;;;;;;5075726;28;20455;-60
2022/04/13 06:14:41;;;;;;;7.80;6.03;;;13.20;99.90;;;;;;5075412;28;20448;-59
2022/04/13 06:17:09;;;;;;;8.40;7.57;;;13.30;99.90;;;;;;5075225;28;20452;-59
2022/04/13 06:19:37;;;;;;;8.53;6.33;;;13.40;99.90;;;;;;5074957;28;20543;-59
2022/04/13 06:22:04;;;;;;;8.80;6.77;;;13.40;99.90;;;;;;5075333;28;20548;-60
2022/04/13 06:24:31;;;;;;;9.67;6.63;;;13.40;99.90;;;;;;5074718;28;20495;-59
2022/04/13 06:26:58;;;;;;;9.63;6.60;;;13.50;99.90;;;;;;5075217;28;20460;-59
2022/04/13 06:29:25;;;;;;;8.00;6.20;;;13.60;99.90;;;;;;5074733;28;20476;-59
2022/04/13 06:31:52;;;;;;;14.80;7.53;;;13.60;99.90;;;;;;5073851;28;20520;-59
2022/04/13 06:34:21;;;;;;;8.90;6.27;;;13.70;99.90;;;;;;5074822;28;20455;-59
2022/04/13 06:36:49;;;;;;;10.87;6.57;;;13.70;99.90;;;;;;5075308;28;20480;-59
2022/04/13 06:39:16;;;;;;;10.80;8.20;;;13.80;99.90;;;;;;5074447;28;20496;-59
2022/04/13 06:41:43;;;;;;;9.83;6.10;;;13.90;99.90;;;;;;5074521;28;20535;-60
2022/04/13 06:44:10;;;;;;;15.60;6.67;;;14.10;99.90;;;;;;5074637;28;20448;-59
2022/04/13 06:46:37;;;;;;;6.43;5.67;;;14.10;99.90;;;;;;5074302;28;20455;-60
2022/04/13 06:49:04;;;;;;;10.73;7.70;;;14.30;99.90;;;;;;5074646;28;20471;-60
2022/04/13 06:51:33;;;;;;;12.97;7.27;;;14.40;99.90;;;;;;5074197;28;20513;-60
2022/04/13 06:54:01;;;;;;;9.83;6.77;;;14.50;99.90;;;;;;5074405;28;20448;-60
2022/04/13 06:56:28;;;;;;;11.30;7.70;;;14.70;99.90;;;;;;5074405;28;20522;-61
2022/04/13 06:58:55;;;;;;;8.03;6.90;;;14.80;99.90;;;;;;5073869;28;20484;-59
2022/04/13 07:01:22;;;;;;;15.53;8.30;;;14.90;99.90;;;;;;5074059;28;20444;-59
2022/04/13 07:03:49;;;;;;;8.17;7.37;;;14.90;99.90;;;;;;5074320;28;20531;-60
2022/04/13 07:06:16;;;;;;;10.03;7.80;;;15.00;99.90;;;;;;5074221;28;20813;-60
2022/04/13 07:08:45;;;;;;;13.90;8.00;;;15.00;99.90;;;;;;5073638;28;20484;-60
2022/04/13 07:11:12;;;;;;;16.90;8.57;;;15.10;99.90;;;;;;5073996;28;20449;-60
2022/04/13 07:13:39;;;;;;;12.10;8.00;;;15.20;99.90;;;;;;5073793;28;21014;-60
2022/04/13 07:16:06;;;;;;;11.57;7.57;;;15.30;99.90;;;;;;5074169;28;20451;-59
2022/04/13 07:18:34;;;;;;;13.60;7.83;;;15.30;99.90;;;;;;5073932;28;20491;-60
2022/04/13 07:21:02;;;;;;;15.00;8.13;;;15.50;99.90;;;;;;5073945;28;20445;-60
2022/04/13 07:23:31;;;;;;;15.17;7.27;;;15.60;99.90;;;;;;5073571;28;20474;-60
2022/04/13 07:26:00;;;;;;;10.60;7.30;;;15.60;99.90;;;;;;5073426;28;20464;-59
2022/04/13 07:28:27;;;;;;;10.30;8.00;;;15.80;99.90;;;;;;5073195;28;20871;-60
2022/04/13 07:30:54;;;;;;;9.17;7.60;;;15.90;99.90;;;;;;5073075;28;20480;-60
2022/04/13 07:33:21;;;;;;;7.40;6.70;;;15.90;99.90;;;;;;5071115;28;20448;-60
2022/04/13 07:35:48;;;;;;;11.87;8.37;;;16.00;99.90;;;;;;5062547;28;20456;-60
2022/04/13 07:38:16;;;;;;;12.07;7.73;;;16.20;99.90;;;;;;5065945;28;20818;-60
2022/04/13 07:40:44;;;;;;;13.43;7.03;;;16.30;99.90;;;;;;5053499;28;20552;-60
2022/04/13 07:43:13;;;;;;;9.37;7.53;;;16.40;99.90;;;;;;5061827;28;20943;-60
2022/04/13 07:45:41;;;;;;;11.37;7.23;;;16.50;99.90;;;;;;5072825;28;21016;-60
2022/04/13 07:48:09;;;;;;;8.07;6.13;;;16.60;99.90;;;;;;5065258;28;20477;-60
2022/04/13 07:50:36;;;;;;;10.33;7.43;;;16.60;99.90;;;;;;5053863;28;20538;-60
2022/04/13 07:53:03;;;;;;;8.97;7.53;;;16.70;99.90;;;;;;5053315;28;20446;-60
2022/04/13 07:55:31;;;;;;;13.70;6.37;;;16.80;99.90;;;;;;5053503;28;20449;-60
2022/04/13 07:57:58;;;;;;;7.10;6.27;;;17.00;99.90;;;;;;5053011;28;20493;-60
2022/04/13 08:00:27;;;;;;;10.70;7.10;;;17.10;99.90;;;;;;5053226;28;20528;-60
2022/04/13 08:02:54;;;;;;;7.50;6.37;;;17.40;99.90;;;;;;5053152;28;20449;-60
2022/04/13 08:05:23;;;;;;;6.30;5.80;;;17.50;99.90;;;;;;5053337;28;20476;-60
2022/04/13 08:07:52;;;;;;;9.10;6.40;;;17.60;99.90;;;;;;5053188;28;20469;-59
2022/04/13 08:10:19;;;;;;;8.33;5.93;;;17.50;99.90;;;;;;5053353;28;20480;-60
2022/04/13 08:12:47;;;;;;;7.33;6.63;;;17.40;99.90;;;;;;5053495;28;20908;-61
2022/04/13 08:15:15;;;;;;;6.00;5.50;;;17.40;99.90;;;;;;5053216;28;20445;-60
2022/04/13 08:17:44;;;;;;;10.30;6.40;;;17.60;99.90;;;;;;5052964;28;20555;-60
2022/04/13 08:20:13;;;;;;;5.83;5.23;;;17.90;99.90;;;;;;5053116;28;20456;-60
2022/04/13 08:22:42;;;;;;;9.20;5.10;;;18.10;99.90;;;;;;5052796;28;20887;-60
2022/04/13 08:25:10;;;;;;;7.23;5.83;;;18.30;99.90;;;;;;5052808;28;20556;-60
2022/04/13 08:27:38;;;;;;;8.80;7.03;;;18.30;99.90;;;;;;5052770;28;20556;-60
2022/04/13 08:30:09;;;;;;;6.47;5.83;;;18.40;99.90;;;;;;5052566;28;21040;-60
2022/04/13 08:32:37;;;;;;;8.83;5.57;;;18.50;99.90;;;;;;5052647;28;20923;-60
2022/04/13 08:35:09;;;;;;;6.70;5.90;;;;;;;;;;5052496;28;20449;-60
2022/04/13 08:37:37;;;;;;;5.57;5.00;;;;;;;;;;5052613;28;20543;-60
2022/04/13 08:40:05;;;;;;;10.63;4.93;;;19.80;98.30;;;;;;5051971;28;20495;-60
2022/04/13 08:42:40;;;;;;;11.53;5.70;;;20.10;97.20;;;;;;5052430;28;20785;-59
2022/04/13 08:45:13;;;;;;;6.20;4.10;;;20.80;96.50;;;;;;5052805;28;20425;-59
2022/04/13 08:47:45;;;;;;;4.90;4.40;;;20.90;94.80;;;;;;5052609;28;20541;-59
2022/04/13 08:50:14;;;;;;;8.73;4.80;;;20.80;95.90;;;;;;5052495;28;20437;-61
2022/04/13 08:52:42;;;;;;;8.63;5.27;;;21.10;95.30;;;;;;5052332;28;20454;-59
2022/04/13 08:55:11;;;;;;;7.83;4.53;;;21.30;93.90;;;;;;5054998;28;20460;-60
2022/04/13 08:57:41;;;;;;;6.93;4.67;;;21.50;93.20;;;;;;5056376;28;20472;-61
2022/04/13 09:00:11;;;;;;;7.80;4.33;;;21.80;92.40;;;;;;5056755;28;20489;-60
2022/04/13 09:02:47;;;;;;;7.73;3.80;;;;;;;;;;5056356;28;20867;-60
2022/04/13 09:05:18;;;;;;;7.63;4.63;;;22.30;90.80;;;;;;5056449;28;20440;-59
2022/04/13 09:07:50;;;;;;;4.90;4.40;;;22.20;88.70;;;;;;5056528;28;20465;-59
2022/04/13 09:10:20;;;;;;;5.90;4.37;;;22.00;90.30;;;;;;5055926;28;20913;-59
2022/04/13 09:12:50;;;;;;;7.83;4.27;;;22.00;90.00;;;;;;5056017;28;20444;-59
2022/04/13 09:15:17;;;;;;;6.17;4.43;;;22.30;88.30;;;;;;5055983;28;20536;-59
2022/04/13 09:17:46;;;;;;;5.47;4.37;;;23.00;88.80;;;;;;5055816;28;20552;-59
2022/04/13 09:20:14;;;;;;;4.67;4.27;;;23.50;86.40;;;;;;5056014;28;20543;-59
2022/04/13 09:22:44;;;;;;;6.20;4.57;;;23.60;85.70;;;;;;5056239;28;20449;-59
2022/04/13 09:25:12;;;;;;;6.30;3.80;;;23.80;84.90;;;;;;5055793;28;20465;-59
2022/04/13 09:27:40;;;;;;;11.23;4.50;;;24.10;79.80;;;;;;5055853;28;20826;-60
2022/04/13 09:30:09;;;;;;;4.57;4.13;;;24.20;81.70;;;;;;5055496;28;20558;-60
2022/04/13 09:32:36;;;;;;;17.27;4.70;;;24.30;80.00;;;;;;5056333;28;20453;-59
2022/04/13 09:35:04;;;;;;;8.23;4.20;;;23.90;77.50;;;;;;5055880;28;20834;-60
2022/04/13 09:37:33;;;;;;;7.63;4.87;;;23.90;75.70;;;;;;5056019;28;20526;-60
2022/04/13 09:40:03;;;;;;;7.37;3.83;;;;;;;;;;5055743;28;20896;-60
2022/04/13 09:42:30;;;;;;;5.93;3.60;;;24.90;72.90;;;;;;5055406;28;20884;-60
2022/04/13 09:44:58;;;;;;;5.47;3.60;;;25.30;69.40;;;;;;5055891;28;20445;-60
2022/04/13 09:47:32;;;;;;;6.30;3.33;;;25.50;70.10;;;;;;5055708;28;20991;-60
2022/04/13 09:49:59;;;;;;;7.67;3.20;;;26.00;67.00;;;;;;5055924;28;20426;-60
2022/04/13 09:52:33;;;;;;;3.07;2.77;;;25.10;59.90;;;;;;5055519;28;20455;-59
2022/04/13 09:55:05;;;;;;;8.93;4.47;;;24.50;61.20;;;;;;5055370;28;20460;-60
2022/04/13 09:57:33;;;;;;;4.33;3.67;;;24.30;63.80;;;;;;5055655;28;20579;-60
2022/04/13 10:00:01;;;;;;;8.43;3.77;;;24.70;62.40;;;;;;5055067;28;20491;-60
2022/04/13 10:02:36;;;;;;;3.33;2.77;;;25.00;61.80;;;;;;5055481;28;20503;-60
2022/04/13 10:05:03;;;;;;;6.10;2.80;;;25.40;62.60;;;;;;5055291;28;20456;-60
2022/04/13 10:07:33;;;;;;;7.10;3.70;;;25.60;60.60;;;;;;5055361;28;20533;-60
2022/04/13 10:10:03;;;;;;;4.00;3.00;;;25.50;59.90;;;;;;5054764;28;20456;-60
2022/04/13 10:12:46;;;;;;;10.17;3.07;;;25.50;59.10;;;;;;5055386;28;20532;-60
2022/04/13 10:15:14;;;;;;;8.43;3.77;;;25.70;58.70;;;;;;5054919;28;20440;-60
2022/04/13 10:17:42;;;;;;;9.37;3.53;;;25.60;59.80;;;;;;5054875;28;20553;-60
2022/04/13 10:20:10;;;;;;;6.63;3.10;;;25.70;59.60;;;;;;5054770;28;20853;-60
2022/04/13 10:22:58;;;;;;;8.77;3.43;;;25.30;57.70;;;;;;5054808;28;20898;-60
2022/04/13 10:25:27;;;;;;;8.63;4.07;;;25.80;59.90;;;;;;5054994;28;20975;-60
2022/04/13 10:27:55;;;;;;;9.77;4.30;;;25.70;60.70;;;;;;5055019;28;20526;-60
2022/04/13 10:30:27;;;;;;;9.03;3.17;;;25.60;57.90;;;;;;5054654;28;20489;-60
2022/04/13 10:32:59;;;;;;;4.40;3.43;;;25.80;58.10;;;;;;5054741;28;20449;-61
2022/04/13 10:35:29;;;;;;;4.00;2.67;;;26.60;57.90;;;;;;5054694;28;20445;-60
2022/04/13 10:37:56;;;;;;;5.77;3.50;;;27.40;58.70;;;;;;5054680;28;20501;-61
2022/04/13 10:40:27;;;;;;;3.43;3.00;;;27.60;56.10;;;;;;5054536;28;20476;-60
2022/04/13 10:42:58;;;;;;;6.43;3.50;;;27.40;55.50;;;;;;5054567;28;20442;-60
2022/04/13 10:45:28;;;;;;;5.07;3.80;;;27.30;57.10;;;;;;5054262;28;20437;-60
2022/04/13 10:47:59;;;;;;;5.13;4.00;;;27.00;58.10;;;;;;5054187;28;20465;-61
2022/04/13 10:50:37;;;;;;;5.30;3.20;;;27.10;57.20;;;;;;5054579;28;20990;-60
2022/04/13 10:53:16;;;;;;;6.20;3.30;;;27.10;56.30;;;;;;5054502;28;20457;-61
2022/04/13 10:55:50;;;;;;;5.43;3.00;;;27.10;58.00;;;;;;5054125;28;20932;-60
2022/04/13 10:58:24;;;;;;;5.77;3.40;;;27.20;55.10;;;;;;5054187;28;20510;-60
2022/04/13 11:01:02;;;;;;;3.50;3.20;;;27.40;57.60;;;;;;5054126;28;20980;-60
2022/04/13 11:03:32;;;;;;;5.30;3.60;;;28.10;54.40;;;;;;5054408;28;20936;-61
2022/04/13 11:06:00;;;;;;;7.07;3.77;;;27.70;55.00;;;;;;5054011;28;20449;-61
2022/04/13 11:08:33;;;;;;;6.43;3.30;;;27.20;56.00;;;;;;5054331;28;20561;-61
2022/04/13 11:11:02;;;;;;;6.83;4.00;;;27.50;55.70;;;;;;5053944;28;20962;-61
2022/04/13 11:13:33;;;;;;;7.30;5.03;;;27.60;56.10;;;;;;5053931;28;20548;-61
2022/04/13 11:16:16;;;;;;;8.13;3.03;;;28.30;53.50;;;;;;5054120;28;20508;-61
2022/04/13 11:18:44;;;;;;;3.10;2.83;;;28.40;53.90;;;;;;5053211;28;20461;-61
2022/04/13 11:21:11;;;;;;;5.63;2.77;;;27.80;52.80;;;;;;5054012;28;20532;-61
2022/04/13 11:23:50;;;;;;;3.87;2.83;;;27.20;52.90;;;;;;5053597;28;20441;-61
2022/04/13 11:26:27;;;;;;;3.03;2.67;;;27.80;54.10;;;;;;5053597;28;20543;-61
2022/04/13 11:29:15;;;;;;;12.77;3.07;;;28.20;52.60;;;;;;5053481;28;20476;-61
2022/04/13 11:32:16;;;;;;;3.70;2.80;;;28.10;52.50;;;;;;5054113;28;20434;-61
2022/04/13 11:34:46;;;;;;;2.97;2.30;;;28.00;51.40;;;;;;5051371;28;20461;-61
2022/04/13 11:37:15;;;;;;;5.90;3.00;;;27.50;52.30;;;;;;5054000;28;20426;-60
2022/04/13 11:39:54;;;;;;;9.03;3.37;;;27.30;54.00;;;;;;5053301;28;20481;-60
2022/04/13 11:42:52;;;;;;;4.00;2.90;;;27.50;52.90;;;;;;5053599;28;20496;-61
2022/04/13 11:45:21;;;;;;;4.10;2.80;;;27.90;53.80;;;;;;5053373;28;20462;-61
2022/04/13 11:47:56;;;;;;;6.87;2.60;;;27.80;51.80;;;;;;5053569;28;20552;-60
2022/04/13 11:50:27;;;;;;;2.70;2.50;;;27.60;53.20;;;;;;5053386;28;20472;-63
2022/04/13 11:52:56;;;;;;;4.03;2.90;;;27.70;52.50;;;;;;5053997;28;20532;-61
2022/04/13 11:55:25;;;;;;;5.60;3.27;;;27.60;50.90;;;;;;5053117;28;20885;-61
2022/04/13 11:58:22;;;;;;;5.27;2.83;;;27.60;51.90;;;;;;5053118;28;20496;-61
2022/04/13 12:00:57;;;;;;;4.43;2.90;;;27.20;52.10;;;;;;5053253;28;20440;-60
2022/04/13 12:03:28;;;;;;;4.70;2.93;;;27.80;52.80;;;;;;5053315;28;20410;-61
2022/04/13 12:05:57;;;;;;;5.63;3.00;;;28.30;52.00;;;;;;5053122;28;20433;-61
2022/04/13 12:08:26;;;;;;;7.53;3.00;;;28.50;52.20;;;;;;5053357;28;20488;-61
2022/04/13 12:10:57;;;;;;;7.13;2.73;;;28.30;51.70;;;;;;5053058;28;20816;-61
2022/04/13 12:13:27;;;;;;;5.40;3.03;;;27.90;50.60;;;;;;5053357;28;20432;-61
2022/04/13 12:15:56;;;;;;;3.03;2.60;;;27.60;50.60;;;;;;5053526;28;20536;-61
2022/04/13 12:18:25;;;;;;;5.47;2.60;;;27.90;51.30;;;;;;5053360;28;20471;-61
2022/04/13 12:20:54;;;;;;;4.67;2.30;;;28.20;51.20;;;;;;5052973;28;20477;-61
2022/04/13 12:23:25;;;;;;;5.10;2.70;;;27.80;52.80;;;;;;5053061;28;20451;-61
2022/04/13 12:25:54;;;;;;;5.33;2.83;;;27.40;54.20;;;;;;5053484;28;20457;-63
2022/04/13 12:28:22;;;;;;;5.47;2.90;;;27.30;52.20;;;;;;5054010;28;20465;-61
2022/04/13 12:31:02;;;;;;;6.13;3.40;;;27.50;52.50;;;;;;5056841;28;20485;-61
2022/04/13 12:33:31;;;;;;;7.40;3.50;;;28.10;53.20;;;;;;5057123;28;20532;-61
2022/04/13 12:35:59;;;;;;;4.80;2.50;;;27.70;51.40;;;;;;5057402;28;20996;-61
2022/04/13 12:38:29;;;;;;;6.20;2.60;;;27.40;51.90;;;;;;5057003;28;20469;-61
2022/04/13 12:41:14;;;;;;;5.50;2.60;;;27.00;51.80;;;;;;5056848;28;20476;-61
2022/04/13 12:43:42;;;;;;;4.87;3.50;;;28.00;51.50;;;;;;5056894;28;20468;-61
2022/04/13 12:46:14;;;;;;;17.73;2.90;;;28.10;50.30;;;;;;5057166;28;20457;-62
2022/04/13 12:48:42;;;;;;;6.90;2.60;;;28.40;50.50;;;;;;5056645;28;20994;-61
2022/04/13 12:51:09;;;;;;;4.23;2.63;;;28.40;51.00;;;;;;5056598;28;20522;-62
2022/04/13 12:53:55;;;;;;;3.50;2.40;;;28.10;49.00;;;;;;5056621;28;20455;-62
2022/04/13 12:56:25;;;;;;;4.87;3.00;;;27.60;49.70;;;;;;5056582;28;20461;-61